Time;durP1;ratioP1;P1;durP2;ratioP2;P2;SDS_P1;SDS_P2;PMS_P1;PMS_P2;Temp;Humidity;BMP_temperature;BMP_pressure;BME280_temperature;BME280_humidity;BME280_pressure;Samples;Min_cycle;Max_cycle;Signal;HPM_P1;HPM_P2
2023/03/27 00:00:44;;;;;;;7.93;1.10;;;2.40;99.90;;;;;;4771551;29;20054;-85
2023/03/27 00:03:11;;;;;;;7.00;0.90;;;2.50;99.90;;;;;;4772374;30;20400;-85
2023/03/27 00:05:37;;;;;;;8.60;1.02;;;2.40;99.90;;;;;;4759138;29;20047;-86
2023/03/27 00:08:04;;;;;;;7.03;0.80;;;2.40;99.90;;;;;;4757097;30;20075;-87
2023/03/27 00:10:31;;;;;;;13.43;1.20;;;2.40;99.90;;;;;;4772069;30;20035;-85
2023/03/27 00:12:57;;;;;;;9.15;1.60;;;2.80;99.90;;;;;;4788377;29;20036;-85
2023/03/27 00:15:24;;;;;;;8.10;1.15;;;2.40;99.90;;;;;;4786612;30;20050;-85
2023/03/27 00:17:51;;;;;;;8.30;1.05;;;2.30;99.90;;;;;;4771277;30;20099;-85
2023/03/27 00:20:22;;;;;;;10.18;1.02;;;2.40;99.90;;;;;;4764181;30;20059;-85
2023/03/27 00:22:54;;;;;;;10.55;1.15;;;2.40;99.90;;;;;;4771878;30;20091;-84
2023/03/27 00:25:21;;;;;;;7.50;1.17;;;2.40;99.90;;;;;;4786963;30;20501;-85
2023/03/27 00:27:47;;;;;;;9.23;1.00;;;2.40;99.90;;;;;;4770211;30;20047;-85
2023/03/27 00:30:14;;;;;;;7.93;1.25;;;2.40;99.90;;;;;;4771518;29;20491;-85
2023/03/27 00:32:40;;;;;;;3.55;1.00;;;2.30;99.90;;;;;;4769419;30;20507;-85
2023/03/27 00:35:08;;;;;;;5.72;0.88;;;2.30;99.90;;;;;;4772587;30;20266;-85
2023/03/27 00:37:34;;;;;;;6.78;0.88;;;2.30;99.90;;;;;;4771221;30;20043;-85
2023/03/27 00:40:00;;;;;;;4.78;0.63;;;2.30;99.90;;;;;;4772601;29;20043;-85
2023/03/27 00:42:26;;;;;;;6.25;0.98;;;2.30;99.90;;;;;;4774432;30;20054;-85
2023/03/27 00:44:52;;;;;;;4.72;0.93;;;2.30;99.90;;;;;;4771282;30;20039;-85
2023/03/27 00:47:32;;;;;;;6.18;0.80;;;2.30;99.90;;;;;;4755548;30;20043;-85
2023/03/27 00:50:10;;;;;;;7.65;1.40;;;2.30;99.90;;;;;;4771658;30;20043;-85
2023/03/27 00:52:39;;;;;;;9.05;1.08;;;2.30;99.90;;;;;;4774521;29;20078;-84
2023/03/27 00:55:13;;;;;;;12.05;0.77;;;2.30;99.90;;;;;;4772020;30;20487;-85
2023/03/27 00:57:40;;;;;;;6.47;1.10;;;2.30;99.90;;;;;;4756382;30;20039;-84
2023/03/27 01:00:15;;;;;;;7.97;1.00;;;2.20;99.90;;;;;;4786584;30;20074;-85
2023/03/27 01:02:45;;;;;;;5.78;1.00;;;2.30;99.90;;;;;;4771820;30;20520;-85
2023/03/27 01:05:11;;;;;;;6.22;0.85;;;2.20;99.90;;;;;;4750945;29;20602;-85
2023/03/27 01:07:38;;;;;;;5.47;0.60;;;2.20;99.90;;;;;;4772013;29;20047;-85
2023/03/27 01:10:06;;;;;;;9.15;0.93;;;2.20;99.90;;;;;;4785272;30;20144;-84
2023/03/27 01:13:08;;;;;;;8.30;0.73;;;2.30;99.90;;;;;;4771551;30;20061;-86
2023/03/27 01:15:46;;;;;;;6.10;0.80;;;2.20;99.90;;;;;;4756328;30;20059;-85
2023/03/27 01:18:11;;;;;;;6.10;1.02;;;2.20;99.90;;;;;;4771759;30;20104;-85
2023/03/27 01:20:56;;;;;;;4.65;1.10;;;2.30;99.90;;;;;;4771446;30;20046;-85
2023/03/27 01:23:49;;;;;;;8.70;1.25;;;2.20;99.90;;;;;;4767112;29;20119;-85
2023/03/27 01:26:43;;;;;;;11.30;1.33;;;2.20;99.90;;;;;;4760805;30;20188;-84
2023/03/27 01:29:31;;;;;;;7.90;1.27;;;2.30;99.90;;;;;;4771325;30;20210;-85
2023/03/27 01:32:29;;;;;;;6.10;0.57;;;2.20;99.90;;;;;;4767080;30;20070;-84
2023/03/27 01:35:29;;;;;;;5.10;1.33;;;2.20;99.90;;;;;;4768912;30;20047;-85
2023/03/27 01:38:07;;;;;;;6.78;0.95;;;2.20;99.90;;;;;;4768208;30;20418;-85
2023/03/27 01:41:00;;;;;;;5.63;0.65;;;2.20;99.90;;;;;;4765532;30;20085;-85
2023/03/27 01:44:24;;;;;;;4.72;0.65;;;2.20;99.90;;;;;;4754417;30;20043;-84
2023/03/27 01:46:56;;;;;;;10.40;1.02;;;2.10;99.90;;;;;;4738457;30;20139;-85
2023/03/27 01:49:38;;;;;;;8.02;1.08;;;2.10;99.90;;;;;;4750548;30;20048;-85
2023/03/27 01:52:09;;;;;;;8.50;1.15;;;2.10;99.90;;;;;;4758677;30;20426;-84
2023/03/27 01:54:40;;;;;;;7.78;0.70;;;2.40;99.90;;;;;;4755029;30;20390;-84
2023/03/27 01:57:07;;;;;;;10.27;1.30;;;2.10;99.90;;;;;;4768636;30;20039;-84
2023/03/27 01:59:38;;;;;;;8.10;1.00;;;3.10;99.90;;;;;;4771090;30;20039;-84
2023/03/27 02:02:16;;;;;;;12.85;1.02;;;2.10;99.90;;;;;;4770557;30;20048;-84
2023/03/27 02:04:57;;;;;;;5.25;0.75;;;2.00;99.90;;;;;;4768690;29;20039;-84
2023/03/27 02:07:37;;;;;;;9.10;0.88;;;2.00;99.90;;;;;;4765124;30;20104;-85
2023/03/27 02:10:08;;;;;;;10.43;0.90;;;2.00;99.90;;;;;;4769592;30;20049;-84
2023/03/27 02:12:57;;;;;;;5.38;0.73;;;2.00;99.90;;;;;;4750483;30;20043;-85
2023/03/27 02:15:29;;;;;;;8.90;0.80;;;2.00;99.90;;;;;;4768745;30;20510;-84
2023/03/27 02:18:06;;;;;;;7.00;1.05;;;2.00;99.90;;;;;;4770434;30;20057;-84
2023/03/27 02:20:34;;;;;;;5.88;1.33;;;2.00;99.90;;;;;;4783774;30;20047;-84
2023/03/27 02:23:00;;;;;;;8.50;1.15;;;2.00;99.90;;;;;;4769515;30;20498;-84
2023/03/27 02:25:31;;;;;;;8.00;0.93;;;2.00;99.90;;;;;;4769426;30;20461;-84
2023/03/27 02:28:18;;;;;;;11.23;1.20;;;2.00;99.90;;;;;;4769471;30;20104;-84
2023/03/27 02:31:10;;;;;;;7.70;0.90;;;2.00;99.90;;;;;;4770119;30;20046;-84
2023/03/27 02:33:52;;;;;;;9.52;1.48;;;1.90;99.90;;;;;;4785389;30;20036;-84
2023/03/27 02:36:42;;;;;;;5.10;0.82;;;1.90;99.90;;;;;;4767654;30;20126;-84
2023/03/27 02:39:15;;;;;;;6.18;0.80;;;2.00;99.90;;;;;;4767615;30;20048;-84
2023/03/27 02:41:51;;;;;;;11.52;1.70;;;2.00;99.90;;;;;;4769570;30;20039;-84
2023/03/27 02:44:50;;;;;;;5.22;0.80;;;2.00;99.90;;;;;;4756151;30;20050;-85
2023/03/27 02:47:44;;;;;;;6.90;0.88;;;2.00;99.90;;;;;;4764873;30;20102;-84
2023/03/27 02:50:19;;;;;;;6.38;1.02;;;2.00;99.90;;;;;;4769994;30;20066;-85
2023/03/27 02:52:52;;;;;;;16.92;1.20;;;2.00;99.90;;;;;;4768812;30;20122;-84
2023/03/27 02:55:22;;;;;;;11.00;0.80;;;2.00;99.90;;;;;;4770952;29;20047;-84
2023/03/27 02:57:55;;;;;;;6.38;1.08;;;2.00;99.90;;;;;;4788736;29;20054;-84
2023/03/27 03:00:25;;;;;;;10.10;1.50;;;2.00;99.90;;;;;;4773130;30;20090;-84
2023/03/27 03:02:59;;;;;;;7.47;1.13;;;2.00;99.90;;;;;;4773698;30;20340;-84
2023/03/27 03:05:25;;;;;;;8.52;0.95;;;1.90;99.90;;;;;;4773496;30;20040;-84
2023/03/27 03:07:53;;;;;;;5.00;0.77;;;2.00;99.90;;;;;;4772795;30;20116;-84
2023/03/27 03:10:20;;;;;;;8.10;0.90;;;2.00;99.90;;;;;;4774211;30;20444;-84
2023/03/27 03:12:46;;;;;;;7.90;0.77;;;2.00;99.90;;;;;;4772792;30;20043;-87
2023/03/27 03:15:12;;;;;;;4.55;0.63;;;3.20;99.90;;;;;;4787550;30;20046;-87
2023/03/27 03:17:38;;;;;;;5.38;0.75;;;2.00;99.90;;;;;;4769834;30;20040;-84
2023/03/27 03:20:05;;;;;;;7.63;0.70;;;2.00;99.90;;;;;;4788335;29;20127;-85
2023/03/27 03:22:31;;;;;;;6.53;0.90;;;2.00;99.90;;;;;;4772845;30;20051;-85
2023/03/27 03:24:57;;;;;;;8.02;1.30;;;2.00;99.90;;;;;;4774794;30;20050;-85
2023/03/27 03:27:22;;;;;;;5.30;0.73;;;2.00;99.90;;;;;;4767506;30;20055;-85
2023/03/27 03:29:48;;;;;;;5.68;0.70;;;2.00;99.90;;;;;;4758109;30;20097;-85
2023/03/27 03:32:14;;;;;;;6.15;0.75;;;2.10;99.90;;;;;;4771695;30;20063;-85
2023/03/27 03:34:40;;;;;;;7.80;0.60;;;2.00;99.90;;;;;;4787599;30;20076;-85
2023/03/27 03:37:09;;;;;;;10.38;0.65;;;1.90;99.90;;;;;;4772156;30;20499;-85
2023/03/27 03:39:35;;;;;;;5.63;0.77;;;3.20;99.90;;;;;;4771287;30;20047;-85
2023/03/27 03:42:01;;;;;;;8.50;0.63;;;2.00;99.90;;;;;;4773942;30;20046;-84
2023/03/27 03:44:27;;;;;;;4.22;0.52;;;1.30;99.90;;;;;;4760792;30;20067;-85
2023/03/27 03:46:52;;;;;;;7.55;0.88;;;2.00;99.90;;;;;;4772460;30;20165;-85
2023/03/27 03:49:18;;;;;;;10.23;0.85;;;2.00;99.90;;;;;;4772846;30;20047;-85
2023/03/27 03:51:44;;;;;;;9.93;1.10;;;1.90;99.90;;;;;;4772423;30;20075;-85
2023/03/27 03:54:09;;;;;;;7.53;1.02;;;1.90;99.90;;;;;;4771333;30;20043;-84
2023/03/27 03:56:36;;;;;;;10.68;1.05;;;1.90;99.90;;;;;;4771618;30;20043;-84
2023/03/27 03:59:02;;;;;;;13.45;2.03;;;1.90;99.90;;;;;;4772275;30;20120;-85
2023/03/27 04:01:28;;;;;;;8.27;1.50;;;1.90;99.90;;;;;;4773300;29;20792;-84
2023/03/27 04:03:54;;;;;;;8.40;1.23;;;1.90;99.90;;;;;;4772124;30;20088;-84
2023/03/27 04:06:19;;;;;;;8.45;0.98;;;1.80;99.90;;;;;;4771100;30;20047;-84
2023/03/27 04:08:46;;;;;;;5.88;0.88;;;1.80;99.90;;;;;;4772912;30;20035;-84
2023/03/27 04:11:11;;;;;;;7.90;0.77;;;1.80;99.90;;;;;;4772428;30;20123;-80
2023/03/27 04:13:37;;;;;;;4.43;0.85;;;1.80;99.90;;;;;;4771985;30;20146;-81
2023/03/27 04:16:03;;;;;;;4.45;0.98;;;1.80;99.90;;;;;;4771598;30;20047;-81
2023/03/27 04:18:31;;;;;;;7.20;0.90;;;1.80;99.90;;;;;;4772111;29;20693;-81
2023/03/27 04:21:03;;;;;;;5.43;0.77;;;1.80;99.90;;;;;;4764049;30;20068;-84
2023/03/27 04:23:29;;;;;;;7.60;0.68;;;1.80;99.90;;;;;;4775426;30;20048;-83
2023/03/27 04:25:59;;;;;;;3.85;0.77;;;1.80;99.90;;;;;;4773693;30;20126;-84
2023/03/27 04:28:33;;;;;;;9.65;0.77;;;1.80;99.90;;;;;;4757604;30;20127;-82
2023/03/27 04:31:05;;;;;;;7.53;1.25;;;1.70;99.90;;;;;;4782278;29;20093;-80
2023/03/27 04:33:33;;;;;;;6.75;0.77;;;1.80;99.90;;;;;;4775427;29;20376;-82
2023/03/27 04:36:01;;;;;;;7.82;1.52;;;1.80;99.90;;;;;;4771988;29;20047;-81
2023/03/27 04:38:30;;;;;;;6.10;0.73;;;1.80;99.90;;;;;;4761572;29;20058;-81
2023/03/27 04:40:58;;;;;;;8.15;1.42;;;1.80;99.90;;;;;;4771714;30;20285;-84
2023/03/27 04:43:27;;;;;;;5.97;1.00;;;1.80;99.90;;;;;;4772765;30;20114;-83
2023/03/27 04:45:53;;;;;;;6.72;1.05;;;1.80;99.90;;;;;;4788034;30;20054;-82
2023/03/27 04:48:20;;;;;;;5.95;0.50;;;1.70;99.90;;;;;;4786951;30;20051;-83
2023/03/27 04:50:49;;;;;;;7.28;1.10;;;1.80;99.90;;;;;;4772815;30;20115;-83
2023/03/27 04:53:16;;;;;;;6.80;1.25;;;1.80;99.90;;;;;;4768701;30;20047;-81
2023/03/27 04:55:44;;;;;;;7.18;0.77;;;1.80;99.90;;;;;;4773361;30;20595;-82
2023/03/27 04:58:11;;;;;;;7.70;0.80;;;1.80;99.90;;;;;;4772887;30;20066;-82
2023/03/27 05:00:37;;;;;;;7.47;1.00;;;1.80;99.90;;;;;;4770858;30;20043;-82
2023/03/27 05:03:03;;;;;;;4.25;1.33;;;1.80;99.90;;;;;;4770271;30;20116;-82
2023/03/27 05:05:28;;;;;;;5.90;1.02;;;1.80;99.90;;;;;;4772845;30;20039;-82
2023/03/27 05:07:54;;;;;;;9.77;1.00;;;1.80;99.90;;;;;;4773095;30;20140;-83
2023/03/27 05:10:20;;;;;;;7.72;0.80;;;1.80;99.90;;;;;;4788542;30;20053;-83
2023/03/27 05:12:48;;;;;;;4.88;1.40;;;1.80;99.90;;;;;;4771616;30;20043;-82
2023/03/27 05:15:16;;;;;;;9.80;1.20;;;1.80;99.90;;;;;;4771719;30;20391;-84
2023/03/27 05:17:43;;;;;;;7.07;0.90;;;1.80;99.90;;;;;;4771854;30;20498;-82
2023/03/27 05:20:18;;;;;;;10.40;1.40;;;1.80;99.90;;;;;;4772815;30;20050;-82
2023/03/27 05:22:44;;;;;;;5.50;1.00;;;1.80;99.90;;;;;;4771460;30;20043;-81
2023/03/27 05:25:11;;;;;;;9.27;1.15;;;1.80;99.90;;;;;;4778576;29;20048;-81
2023/03/27 05:27:38;;;;;;;12.38;1.73;;;1.80;99.90;;;;;;4771932;30;20056;-81
2023/03/27 05:30:05;;;;;;;5.25;0.70;;;1.90;99.90;;;;;;4772948;30;20406;-81
2023/03/27 05:32:31;;;;;;;8.77;1.77;;;1.90;99.90;;;;;;4772158;30;20043;-80
2023/03/27 05:34:56;;;;;;;12.50;3.10;;;1.90;99.90;;;;;;4772543;30;20043;-80
2023/03/27 05:37:22;;;;;;;9.60;1.52;;;1.90;99.90;;;;;;4773541;29;20418;-80
2023/03/27 05:39:48;;;;;;;11.43;1.23;;;1.90;99.90;;;;;;4789645;29;20099;-80
2023/03/27 05:42:17;;;;;;;8.20;1.08;;;1.90;99.90;;;;;;4771596;30;20081;-83
2023/03/27 05:44:43;;;;;;;7.88;1.30;;;1.90;99.90;;;;;;4759381;30;20036;-83
2023/03/27 05:47:10;;;;;;;5.88;1.15;;;2.00;99.90;;;;;;4786373;29;20082;-83
2023/03/27 05:49:36;;;;;;;13.70;1.83;;;2.10;99.90;;;;;;4783705;29;20115;-83
2023/03/27 05:52:02;;;;;;;9.50;2.05;;;2.30;99.90;;;;;;4754423;30;20043;-83
2023/03/27 05:54:28;;;;;;;11.60;1.25;;;2.50;99.90;;;;;;4768838;30;20061;-84
2023/03/27 05:56:54;;;;;;;9.23;1.40;;;2.60;99.90;;;;;;4786555;30;20486;-84
2023/03/27 05:59:20;;;;;;;8.52;1.45;;;3.10;99.90;;;;;;4787349;30;20506;-83
2023/03/27 06:01:47;;;;;;;8.25;1.13;;;4.40;99.90;;;;;;4760157;30;20052;-83
2023/03/27 06:04:16;;;;;;;7.72;1.92;;;4.40;99.90;;;;;;4769042;30;20444;-83
2023/03/27 06:06:43;;;;;;;6.38;1.00;;;5.20;99.90;;;;;;4764769;30;20091;-83
2023/03/27 06:09:08;;;;;;;6.00;1.25;;;5.90;99.90;;;;;;4753076;30;20047;-82
2023/03/27 06:11:34;;;;;;;8.57;1.27;;;5.80;99.90;;;;;;4771563;30;20051;-82
2023/03/27 06:14:04;;;;;;;9.77;1.60;;;5.90;99.90;;;;;;4783164;29;20046;-82
2023/03/27 06:16:30;;;;;;;9.85;1.67;;;5.20;99.90;;;;;;4770820;30;20051;-82
2023/03/27 06:18:56;;;;;;;10.00;1.40;;;6.20;99.90;;;;;;4787013;30;20055;-82
2023/03/27 06:21:21;;;;;;;5.20;1.13;;;4.60;99.90;;;;;;4771109;30;20067;-81
2023/03/27 06:23:47;;;;;;;6.53;1.33;;;4.40;99.90;;;;;;4770526;30;20625;-81
2023/03/27 06:26:14;;;;;;;6.60;0.90;;;4.30;99.90;;;;;;4771490;30;20116;-82
2023/03/27 06:28:40;;;;;;;6.32;0.68;;;4.20;99.90;;;;;;4755644;30;20044;-81
2023/03/27 06:31:05;;;;;;;9.63;0.85;;;4.10;99.90;;;;;;4771038;30;20108;-83
2023/03/27 06:33:34;;;;;;;7.97;1.25;;;4.60;99.90;;;;;;4785401;30;20551;-83
2023/03/27 06:36:04;;;;;;;7.30;1.60;;;4.40;99.90;;;;;;4758559;29;20059;-83
2023/03/27 06:38:33;;;;;;;5.70;0.60;;;4.40;99.90;;;;;;4769842;30;20051;-83
2023/03/27 06:41:01;;;;;;;5.65;0.77;;;4.40;99.90;;;;;;4769642;30;20059;-83
2023/03/27 06:43:27;;;;;;;9.00;1.05;;;6.50;99.90;;;;;;4770128;30;20058;-82
2023/03/27 06:45:53;;;;;;;3.85;0.70;;;7.80;99.90;;;;;;4770849;29;20043;-82
2023/03/27 06:48:23;;;;;;;4.93;1.20;;;9.30;99.90;;;;;;4754687;30;20040;-83
2023/03/27 06:50:51;;;;;;;13.55;2.40;;;10.30;99.90;;;;;;4767957;30;20043;-83
2023/03/27 06:53:20;;;;;;;2.40;0.60;;;10.90;99.90;;;;;;4788449;29;20050;-84
2023/03/27 06:55:48;;;;;;;4.80;1.10;;;11.40;99.90;;;;;;4754711;30;20051;-83
2023/03/27 06:58:16;;;;;;;3.30;0.60;;;12.60;99.90;;;;;;4785966;30;20055;-83
2023/03/27 07:00:44;;;;;;;4.80;0.50;;;13.40;99.90;;;;;;4784215;30;20101;-84
2023/03/27 07:03:42;;;;;;;3.08;0.80;;;13.40;99.90;;;;;;4769787;30;20043;-84
2023/03/27 07:06:11;;;;;;;1.65;0.38;;;13.20;99.90;;;;;;4770253;30;20047;-84
2023/03/27 07:08:36;;;;;;;5.25;1.30;;;12.70;99.90;;;;;;4770029;30;20058;-83
2023/03/27 07:11:02;;;;;;;11.35;1.42;;;12.60;99.90;;;;;;4755516;30;20111;-84
2023/03/27 07:13:28;;;;;;;6.68;0.82;;;12.30;99.90;;;;;;4786614;30;20118;-84
2023/03/27 07:15:56;;;;;;;8.05;1.20;;;11.90;99.90;;;;;;4786434;30;20562;-85
2023/03/27 07:18:22;;;;;;;3.45;0.85;;;11.70;99.90;;;;;;4769042;30;20047;-82
2023/03/27 07:20:49;;;;;;;4.18;1.27;;;11.60;99.90;;;;;;4785211;29;20035;-83
2023/03/27 07:23:15;;;;;;;4.50;0.63;;;11.60;99.90;;;;;;4768663;30;20073;-82
2023/03/27 07:25:40;;;;;;;8.25;1.40;;;12.20;99.90;;;;;;4764909;30;20039;-83
2023/03/27 07:28:11;;;;;;;3.90;0.73;;;12.60;99.90;;;;;;4769311;29;20051;-82
2023/03/27 07:30:37;;;;;;;6.20;1.17;;;12.60;99.90;;;;;;4768519;30;20058;-82
2023/03/27 07:33:08;;;;;;;5.80;1.55;;;12.80;99.90;;;;;;4784862;30;20074;-83
2023/03/27 07:35:34;;;;;;;6.78;0.80;;;12.90;99.90;;;;;;4763254;30;20048;-83
2023/03/27 07:38:01;;;;;;;4.90;0.70;;;12.90;99.90;;;;;;4767746;30;20056;-84
2023/03/27 07:40:27;;;;;;;5.30;1.38;;;12.80;99.90;;;;;;4771769;30;20055;-86
2023/03/27 07:42:58;;;;;;;5.10;0.95;;;12.80;99.90;;;;;;4773531;30;20058;-85
2023/03/27 07:45:24;;;;;;;6.03;0.82;;;13.00;99.90;;;;;;4758257;30;20563;-85
2023/03/27 07:47:50;;;;;;;4.95;0.80;;;12.50;99.90;;;;;;4787189;29;20048;-85
2023/03/27 07:50:36;;;;;;;7.82;1.58;;;11.90;99.90;;;;;;4772736;30;20047;-85
2023/03/27 07:53:05;;;;;;;6.10;0.70;;;12.50;99.90;;;;;;4789619;29;20051;-85
2023/03/27 07:56:07;;;;;;;9.27;0.95;;;11.10;99.90;;;;;;4758250;30;20039;-85
2023/03/27 07:58:33;;;;;;;5.32;0.98;;;10.80;99.90;;;;;;4774698;30;20112;-84
2023/03/27 08:01:00;;;;;;;7.70;0.98;;;10.40;99.90;;;;;;4774675;30;20093;-86
2023/03/27 08:03:29;;;;;;;9.18;1.02;;;10.10;99.90;;;;;;4784468;30;20077;-85
2023/03/27 08:05:57;;;;;;;4.85;0.98;;;9.80;99.90;;;;;;4802480;30;20043;-87
2023/03/27 08:08:45;;;;;;;7.00;0.95;;;9.90;99.90;;;;;;4773700;30;20079;-89
2023/03/27 08:11:21;;;;;;;4.15;0.50;;;8.40;99.90;;;;;;4771855;30;20046;-88
2023/03/27 08:13:46;;;;;;;4.07;0.90;;;7.30;99.90;;;;;;4804197;29;20043;-88
2023/03/27 08:16:15;;;;;;;4.00;0.50;;;8.10;99.90;;;;;;4767247;30;20043;-88
2023/03/27 08:18:41;;;;;;;3.38;0.70;;;7.00;99.90;;;;;;4784985;30;20050;-88
2023/03/27 08:21:07;;;;;;;5.35;0.60;;;6.70;99.90;;;;;;4779110;30;20043;-88
2023/03/27 08:23:36;;;;;;;3.35;0.75;;;6.50;99.90;;;;;;4793115;30;20035;-88
2023/03/27 08:26:02;;;;;;;6.07;0.45;;;7.50;99.90;;;;;;4801726;30;20043;-84
2023/03/27 08:28:33;;;;;;;4.03;0.50;;;6.30;99.90;;;;;;4767507;30;20065;-87
2023/03/27 08:31:01;;;;;;;4.63;0.88;;;6.30;99.90;;;;;;4785810;30;20086;-86
2023/03/27 08:33:28;;;;;;;3.53;0.50;;;6.40;99.90;;;;;;4789764;30;20095;-86
2023/03/27 08:35:56;;;;;;;5.15;0.80;;;6.60;99.90;;;;;;4776935;30;20050;-86
2023/03/27 08:38:25;;;;;;;8.02;0.75;;;6.90;99.90;;;;;;4772375;30;20114;-86
2023/03/27 08:40:59;;;;;;;7.70;0.52;;;7.70;99.90;;;;;;4758757;30;20501;-85
2023/03/27 08:43:48;;;;;;;5.75;0.60;;;7.60;99.90;;;;;;4775973;30;21654;-85
2023/03/27 08:46:52;;;;;;;6.18;0.70;;;8.10;99.90;;;;;;4772708;30;20055;-85
2023/03/27 08:49:26;;;;;;;5.22;0.98;;;8.20;99.90;;;;;;4719154;30;20154;-86
2023/03/27 08:52:09;;;;;;;4.35;0.93;;;8.40;99.90;;;;;;4771155;30;20063;-87
2023/03/27 08:54:59;;;;;;;5.18;0.70;;;9.00;99.90;;;;;;4761572;30;20103;-86
2023/03/27 08:57:30;;;;;;;5.50;0.73;;;9.10;99.90;;;;;;4774758;30;20092;-84
2023/03/27 09:00:19;;;;;;;10.13;1.00;;;9.20;99.90;;;;;;4780111;30;20618;-85
2023/03/27 09:03:34;;;;;;;5.90;1.00;;;9.40;99.90;;;;;;4791877;30;20055;-86
2023/03/27 09:06:38;;;;;;;11.88;1.10;;;9.60;99.90;;;;;;4786024;29;20047;-85
2023/03/27 09:09:32;;;;;;;4.55;0.65;;;9.40;99.90;;;;;;4792403;30;20132;-86
2023/03/27 09:12:16;;;;;;;2.97;0.70;;;9.10;99.90;;;;;;4787078;30;20144;-85
2023/03/27 09:14:59;;;;;;;1.58;0.10;;;8.40;99.90;;;;;;4795632;30;20062;-84
2023/03/27 09:17:42;;;;;;;1.45;0.20;;;7.80;99.90;;;;;;4777839;30;20089;-84
2023/03/27 09:20:31;;;;;;;0.60;0.10;;;7.40;99.90;;;;;;4771565;30;20187;-84
2023/03/27 09:23:11;;;;;;;1.67;0.20;;;6.60;99.90;;;;;;4779888;30;20057;-84
2023/03/27 09:25:55;;;;;;;2.22;0.30;;;8.00;99.90;;;;;;4771342;30;20055;-85
2023/03/27 09:28:44;;;;;;;3.38;0.20;;;7.90;99.90;;;;;;4774772;30;20132;-84
2023/03/27 09:34:58;;;;;;;1.33;0.20;;;8.80;99.90;;;;;;4759052;30;20051;-85
2023/03/27 09:37:29;;;;;;;1.55;0.20;;;9.20;99.90;;;;;;4774902;30;20055;-85
2023/03/27 09:40:11;;;;;;;1.65;0.32;;;9.30;99.90;;;;;;4788338;30;20051;-85
2023/03/27 09:42:44;;;;;;;2.42;0.10;;;9.50;99.90;;;;;;4773924;30;20067;-87
2023/03/27 09:45:13;;;;;;;2.92;0.20;;;9.70;99.90;;;;;;4773986;30;20495;-86
2023/03/27 09:47:54;;;;;;;2.42;0.40;;;10.00;99.90;;;;;;4760311;30;20487;-86
2023/03/27 09:50:24;;;;;;;3.47;0.38;;;10.50;99.90;;;;;;4774168;30;20051;-86
2023/03/27 09:52:51;;;;;;;5.80;0.80;;;10.40;99.90;;;;;;4774726;30;20032;-86
2023/03/27 09:55:33;;;;;;;4.57;0.77;;;10.40;99.90;;;;;;4758531;30;20070;-86
2023/03/27 09:58:19;;;;;;;7.90;1.10;;;10.10;99.90;;;;;;4753651;30;20055;-87
2023/03/27 10:00:45;;;;;;;3.65;0.90;;;9.90;99.90;;;;;;4767322;30;20082;-86
2023/03/27 10:03:16;;;;;;;7.63;1.83;;;9.30;99.90;;;;;;4768571;30;20056;-86
2023/03/27 10:05:46;;;;;;;5.80;1.08;;;9.40;99.90;;;;;;4772582;30;20212;-85
2023/03/27 10:08:43;;;;;;;7.35;0.93;;;9.50;99.90;;;;;;4756427;30;20103;-85
2023/03/27 10:11:19;;;;;;;4.82;0.50;;;9.70;99.90;;;;;;4788652;30;20751;-86
2023/03/27 10:13:47;;;;;;;5.53;1.15;;;9.70;99.90;;;;;;4770924;30;20043;-87
2023/03/27 10:16:26;;;;;;;5.35;1.20;;;10.30;99.90;;;;;;4773855;30;20082;-88
2023/03/27 10:22:06;;;;;;;3.85;0.77;;;10.30;99.90;;;;;;4771175;30;20073;-86
2023/03/27 10:24:44;;;;;;;4.25;0.70;;;10.30;99.90;;;;;;4758438;30;20110;-86
2023/03/27 10:27:35;;;;;;;3.72;0.45;;;10.10;99.90;;;;;;4773393;30;20466;-87
2023/03/27 10:30:01;;;;;;;4.75;0.52;;;10.30;99.90;;;;;;4774725;30;20101;-86
2023/03/27 10:32:45;;;;;;;3.75;0.55;;;10.50;99.90;;;;;;4769873;30;20054;-86
2023/03/27 10:35:36;;;;;;;6.50;0.88;;;10.50;99.90;;;;;;4771995;30;20064;-87
2023/03/27 10:38:10;;;;;;;7.03;1.10;;;10.70;99.90;;;;;;4782454;30;20048;-86
2023/03/27 10:40:38;;;;;;;6.40;0.73;;;10.90;99.90;;;;;;4786468;30;20054;-86
2023/03/27 10:43:19;;;;;;;6.78;0.80;;;10.90;99.90;;;;;;4772924;30;20055;-87
2023/03/27 10:45:49;;;;;;;4.45;0.80;;;11.00;99.90;;;;;;4747247;30;20499;-85
2023/03/27 10:48:38;;;;;;;4.30;0.50;;;11.20;99.90;;;;;;4772328;30;20043;-86
2023/03/27 10:51:11;;;;;;;3.05;0.45;;;11.10;99.90;;;;;;4771073;30;20040;-86
2023/03/27 10:53:43;;;;;;;4.88;0.80;;;11.30;99.90;;;;;;4764611;30;20039;-87
2023/03/27 10:56:33;;;;;;;3.28;0.40;;;11.50;99.90;;;;;;4771128;30;20108;-86
2023/03/27 10:59:15;;;;;;;5.35;0.70;;;10.70;99.90;;;;;;4787237;30;20486;-85
2023/03/27 11:01:45;;;;;;;4.95;0.77;;;10.60;99.90;;;;;;4772808;30;20091;-86
2023/03/27 11:04:22;;;;;;;3.65;0.50;;;9.80;99.90;;;;;;4783107;30;20120;-86
2023/03/27 11:06:49;;;;;;;6.13;0.98;;;10.80;99.90;;;;;;4766514;30;20047;-85
2023/03/27 11:09:22;;;;;;;4.50;0.60;;;10.50;99.90;;;;;;4772156;30;20043;-86
2023/03/27 11:11:56;;;;;;;6.57;0.52;;;10.70;99.90;;;;;;4773833;30;20059;-85
2023/03/27 11:14:31;;;;;;;5.40;0.90;;;10.70;99.90;;;;;;4760502;29;20054;-87
2023/03/27 11:17:02;;;;;;;6.10;0.60;;;11.10;99.90;;;;;;4775870;30;20047;-86
2023/03/27 11:20:07;;;;;;;4.47;1.25;;;11.20;99.90;;;;;;4778116;30;20045;-87
2023/03/27 11:22:52;;;;;;;6.28;0.47;;;10.80;99.90;;;;;;4724349;30;20064;-86
2023/03/27 11:25:36;;;;;;;3.88;0.40;;;10.90;99.90;;;;;;4791542;30;20074;-85
2023/03/27 11:28:40;;;;;;;3.75;0.32;;;11.50;99.90;;;;;;4777323;30;20098;-87
2023/03/27 11:31:48;;;;;;;1.27;0.30;;;10.90;99.90;;;;;;4775691;30;20043;-88
2023/03/27 11:34:47;;;;;;;10.40;0.52;;;11.00;99.90;;;;;;4776383;30;20070;-85
2023/03/27 11:37:34;;;;;;;2.42;0.40;;;10.10;99.90;;;;;;4775123;30;20115;-86
2023/03/27 11:40:08;;;;;;;4.47;0.45;;;10.30;99.90;;;;;;4776282;30;20414;-85
2023/03/27 11:42:41;;;;;;;1.90;0.40;;;9.00;99.90;;;;;;4796184;30;20130;-85
2023/03/27 11:45:12;;;;;;;3.30;0.57;;;8.90;99.90;;;;;;4790473;30;20054;-86
2023/03/27 11:47:58;;;;;;;2.50;0.30;;;9.10;99.90;;;;;;4790063;29;20043;-85
2023/03/27 11:50:41;;;;;;;4.75;0.60;;;9.40;99.90;;;;;;4788257;30;20070;-86
2023/03/27 11:54:06;;;;;;;5.43;0.40;;;9.70;99.90;;;;;;4776159;30;20127;-86
2023/03/27 11:56:54;;;;;;;2.40;0.50;;;10.00;99.90;;;;;;4738047;30;20052;-85
2023/03/27 11:59:47;;;;;;;2.95;0.30;;;10.30;99.90;;;;;;4754368;30;20068;-84
2023/03/27 12:02:40;;;;;;;3.42;0.30;;;10.40;99.90;;;;;;4769447;30;20483;-85
2023/03/27 12:05:27;;;;;;;5.88;0.40;;;10.60;99.90;;;;;;4788078;30;20104;-86
2023/03/27 12:08:14;;;;;;;3.58;0.40;;;10.80;99.90;;;;;;4773069;30;20119;-86
2023/03/27 12:10:42;;;;;;;4.53;0.40;;;10.70;99.90;;;;;;4776285;30;20047;-86
2023/03/27 12:13:22;;;;;;;3.00;0.50;;;10.80;99.90;;;;;;4759113;30;20066;-85
2023/03/27 12:16:07;;;;;;;5.32;0.73;;;10.60;99.90;;;;;;4786105;30;20055;-87
2023/03/27 12:18:49;;;;;;;4.45;0.90;;;10.20;99.90;;;;;;4775216;29;20049;-86
2023/03/27 12:21:23;;;;;;;3.15;0.40;;;9.70;99.90;;;;;;4779002;30;20051;-86
2023/03/27 12:23:49;;;;;;;3.80;0.52;;;9.20;99.90;;;;;;4776563;30;20054;-85
2023/03/27 12:26:44;;;;;;;5.07;0.50;;;8.90;99.90;;;;;;4780178;30;20055;-85
2023/03/27 12:29:36;;;;;;;4.35;0.90;;;8.90;99.90;;;;;;4775329;30;20055;-86
2023/03/27 12:32:34;;;;;;;2.80;0.50;;;9.20;99.90;;;;;;4775804;30;20563;-85
2023/03/27 12:35:08;;;;;;;8.90;0.70;;;9.70;99.90;;;;;;4727940;30;20055;-85
2023/03/27 12:38:01;;;;;;;8.50;0.90;;;10.10;99.90;;;;;;4766191;30;20043;-85
2023/03/27 12:40:39;;;;;;;4.32;0.80;;;10.30;99.90;;;;;;4776792;30;20047;-88
2023/03/27 12:43:28;;;;;;;7.78;0.60;;;10.00;99.90;;;;;;4779738;30;20062;-87
2023/03/27 12:46:12;;;;;;;5.30;0.82;;;9.80;99.90;;;;;;4766537;29;20083;-85
2023/03/27 12:48:58;;;;;;;3.42;0.68;;;10.10;99.90;;;;;;4782109;30;20503;-88
2023/03/27 12:51:36;;;;;;;5.85;0.70;;;9.70;99.90;;;;;;4783003;30;20528;-85
2023/03/27 12:54:13;;;;;;;4.22;0.50;;;10.40;99.90;;;;;;4795973;30;20049;-87
2023/03/27 13:00:20;;;;;;;6.57;0.60;;;9.60;99.90;;;;;;4794792;30;20138;-87
2023/03/27 13:03:26;;;;;;;5.00;0.60;;;10.40;99.90;;;;;;4770128;30;20096;-86
2023/03/27 13:06:19;;;;;;;5.57;0.55;;;9.30;99.90;;;;;;4782024;30;20047;-88
2023/03/27 13:09:15;;;;;;;5.83;1.00;;;9.80;99.90;;;;;;4758933;30;20120;-87
2023/03/27 13:12:19;;;;;;;4.93;0.65;;;8.90;99.90;;;;;;4775639;30;20050;-86
2023/03/27 13:15:07;;;;;;;3.20;0.63;;;9.00;99.90;;;;;;4777844;30;20055;-87
2023/03/27 13:17:46;;;;;;;6.55;0.80;;;9.50;99.90;;;;;;4777270;30;20079;-86
2023/03/27 13:20:15;;;;;;;6.18;0.90;;;9.80;99.90;;;;;;4772285;30;20044;-87
2023/03/27 13:23:35;;;;;;;11.00;1.13;;;9.90;99.90;;;;;;4774460;30;20053;-86
2023/03/27 13:26:40;;;;;;;5.18;0.98;;;9.60;99.90;;;;;;4742056;30;20089;-87
2023/03/27 13:29:25;;;;;;;5.15;0.93;;;9.00;99.90;;;;;;4782738;30;20126;-86
2023/03/27 13:31:58;;;;;;;2.95;0.43;;;8.60;99.90;;;;;;4773679;30;20061;-86
2023/03/27 13:34:37;;;;;;;3.97;0.60;;;8.20;99.90;;;;;;4775397;30;20051;-86
2023/03/27 13:37:06;;;;;;;7.63;0.88;;;7.80;99.90;;;;;;4755004;30;20044;-85
2023/03/27 13:39:46;;;;;;;6.43;1.00;;;7.60;99.90;;;;;;4758339;30;20086;-86
2023/03/27 13:42:16;;;;;;;13.00;1.38;;;7.80;99.90;;;;;;4763406;30;20118;-86